Time,TemperatureF,DewpointF,PressureIn,WindDirection,WindDirectionDegrees,WindSpeedMPH,WindSpeedGustMPH,Humidity,HourlyPrecipIn,Conditions,Clouds,dailyrainin,SoftwareType,DateUTC
2013-02-05 07:22:00,22.0,20.0,-100.00,North,-999,-999.0,-999.0,88,-99.99,,,-99.99,,2013-02-05 13:22:00,
2013-02-05 07:32:00,22.0,20.0,-100.00,North,-999,-999.0,-999.0,88,-99.99,,,-99.99,,2013-02-05 13:32:00,
2013-02-05 07:42:00,22.0,20.0,-100.00,North,-999,-999.0,-999.0,88,-99.99,,,-99.99,,2013-02-05 13:42:00,
2013-02-05 07:52:00,22.0,20.0,-100.00,North,-999,-999.0,-999.0,88,-99.99,,,-99.99,,2013-02-05 13:52:00,
2013-02-05 08:01:00,22.0,20.0,-100.00,North,-999,-999.0,-999.0,88,-99.99,,,-99.99,,2013-02-05 14:01:00,
2013-02-05 08:22:00,27.0,24.0,-100.00,WSW,240,10.0,-999.0,88,0.00,,,-99.99,,2013-02-05 14:22:00,
2013-02-05 08:32:00,27.0,24.0,-100.00,SW,230,9.0,11.0,87,0.00,,,-99.99,,2013-02-05 14:32:00,
2013-02-05 08:42:00,27.0,24.0,-100.00,SW,230,9.0,11.0,87,0.00,,,-99.99,,2013-02-05 14:42:00,
2013-02-05 08:52:00,29.0,25.0,-100.00,WSW,240,8.0,11.0,85,0.00,,,-99.99,,2013-02-05 14:52:00,
2013-02-05 09:02:00,29.0,25.0,-100.00,WSW,240,8.0,11.0,85,0.00,,,-99.99,,2013-02-05 15:02:00,
2013-02-05 09:11:00,29.0,25.0,-100.00,WSW,240,8.0,11.0,85,0.00,,,-99.99,,2013-02-05 15:11:00,
2013-02-05 09:21:00,29.0,25.0,-100.00,WSW,240,8.0,11.0,85,0.00,,,-99.99,,2013-02-05 15:21:00,
2013-02-05 09:32:00,33.0,27.0,-100.00,WSW,245,10.0,14.0,77,0.00,,,-99.99,,2013-02-05 15:32:00,
2013-02-05 09:41:00,33.0,27.0,-100.00,WSW,245,10.0,14.0,77,0.00,,,-99.99,,2013-02-05 15:41:00,
2013-02-05 09:52:00,34.0,27.0,-100.00,West,270,12.0,17.0,74,0.00,,,-99.99,,2013-02-05 15:52:00,
2013-02-05 10:01:00,34.0,27.0,-100.00,West,270,12.0,17.0,74,0.00,,,-99.99,,2013-02-05 16:01:00,
2013-02-05 10:11:00,35.0,27.0,-100.00,West,280,11.0,19.0,72,0.00,,,-99.99,,2013-02-05 16:11:00,
2013-02-05 10:22:00,36.0,27.0,-100.00,WNW,295,7.0,16.0,71,0.00,,,-99.99,,2013-02-05 16:22:00,
2013-02-05 10:32:00,37.0,28.0,-100.00,WNW,300,12.0,16.0,68,0.00,,,-99.99,,2013-02-05 16:32:00,
2013-02-05 10:42:00,37.0,28.0,-100.00,WNW,300,12.0,16.0,68,0.00,,,-99.99,,2013-02-05 16:42:00,
2013-02-05 10:51:00,38.0,28.0,-100.00,WNW,290,12.0,18.0,66,0.00,,,-99.99,,2013-02-05 16:51:00,
2013-02-05 11:01:00,38.0,28.0,-100.00,WNW,290,12.0,18.0,66,0.00,,,-99.99,,2013-02-05 17:01:00,
2013-02-05 11:11:00,39.0,28.0,-100.00,WNW,290,12.0,17.0,65,0.00,,,-99.99,,2013-02-05 17:11:00,
2013-02-05 11:21:00,39.0,28.0,-100.00,WNW,295,18.0,20.0,65,0.00,,,-99.99,,2013-02-05 17:21:00,
2013-02-05 11:32:00,40.0,29.0,-100.00,WNW,300,12.0,19.0,64,0.00,,,-99.99,,2013-02-05 17:32:00,
2013-02-05 11:42:00,40.0,29.0,-100.00,WNW,300,12.0,19.0,64,0.00,,,-99.99,,2013-02-05 17:42:00,
2013-02-05 11:52:00,40.0,29.0,-100.00,NW,315,14.0,29.0,64,0.00,,,-99.99,,2013-02-05 17:52:00,
2013-02-05 12:02:00,40.0,29.0,-100.00,NW,315,14.0,29.0,64,0.00,,,-99.99,,2013-02-05 18:02:00,
2013-02-05 12:11:00,39.0,29.0,-100.00,NW,310,17.0,26.0,66,0.00,,,-99.99,,2013-02-05 18:11:00,
2013-02-05 12:21:00,39.0,30.0,-100.00,NW,315,11.0,23.0,67,0.00,,,-99.99,,2013-02-05 18:21:00,
2013-02-05 12:32:00,40.0,31.0,-100.00,NW,320,15.0,22.0,67,0.00,,,-99.99,,2013-02-05 18:32:00,
2013-02-05 12:42:00,40.0,31.0,-100.00,NW,320,15.0,22.0,67,0.00,,,-99.99,,2013-02-05 18:42:00,
2013-02-05 12:52:00,41.0,31.0,-100.00,NW,320,11.0,20.0,66,0.00,,,-99.99,,2013-02-05 18:52:00,
2013-02-05 13:02:00,41.0,31.0,-100.00,NW,320,11.0,20.0,66,0.00,,,-99.99,,2013-02-05 19:02:00,
2013-02-05 13:11:00,42.0,31.0,-100.00,NW,310,13.0,19.0,65,0.00,,,-99.99,,2013-02-05 19:11:00,
2013-02-05 13:21:00,42.0,31.0,-100.00,NW,320,9.0,17.0,65,0.00,,,-99.99,,2013-02-05 19:21:00,
2013-02-05 13:32:00,43.0,31.0,-100.00,NW,315,12.0,20.0,63,0.00,,,-99.99,,2013-02-05 19:32:00,
2013-02-05 13:42:00,43.0,31.0,-100.00,NW,315,12.0,20.0,63,0.00,,,-99.99,,2013-02-05 19:42:00,
2013-02-05 13:52:00,42.0,30.0,-100.00,NW,320,11.0,21.0,64,0.00,,,-99.99,,2013-02-05 19:52:00,
2013-02-05 14:01:00,42.0,30.0,-100.00,NW,320,11.0,21.0,64,0.00,,,-99.99,,2013-02-05 20:01:00,
2013-02-05 14:11:00,41.0,30.0,-100.00,NNW,340,12.0,21.0,64,0.00,,,-99.99,,2013-02-05 20:11:00,
2013-02-05 14:21:00,41.0,31.0,-100.00,NNW,330,9.0,21.0,64,0.00,,,-99.99,,2013-02-05 20:21:00,
2013-02-05 14:32:00,41.0,30.0,-100.00,NNW,335,9.0,16.0,64,0.00,,,-99.99,,2013-02-05 20:32:00,
2013-02-05 14:42:00,41.0,30.0,-100.00,NNW,335,9.0,16.0,64,0.00,,,-99.99,,2013-02-05 20:42:00,
2013-02-05 14:52:00,40.0,30.0,-100.00,North,355,9.0,14.0,69,0.00,,,-99.99,,2013-02-05 20:52:00,
2013-02-05 15:02:00,40.0,30.0,-100.00,North,355,9.0,14.0,69,0.00,,,-99.99,,2013-02-05 21:02:00,
2013-02-05 15:11:00,40.0,31.0,-100.00,NNW,340,7.0,11.0,70,0.00,,,-99.99,,2013-02-05 21:11:00,
2013-02-05 15:21:00,40.0,31.0,-100.00,NNW,345,12.0,17.0,70,0.00,,,-99.99,,2013-02-05 21:21:00,
2013-02-05 15:32:00,39.0,31.0,-100.00,NNW,345,12.0,18.0,71,0.00,,,-99.99,,2013-02-05 21:32:00,
2013-02-05 15:42:00,39.0,31.0,-100.00,NNW,345,12.0,18.0,71,0.00,,,-99.99,,2013-02-05 21:42:00,
2013-02-05 15:51:00,39.0,31.0,-100.00,NNW,335,9.0,15.0,72,0.00,,,-99.99,,2013-02-05 21:51:00,
2013-02-05 16:01:00,39.0,31.0,-100.00,NNW,335,9.0,15.0,72,0.00,,,-99.99,,2013-02-05 22:01:00,
2013-02-05 16:11:00,39.0,31.0,-100.00,NNW,345,10.0,14.0,72,0.00,,,-99.99,,2013-02-05 22:11:00,
2013-02-05 16:21:00,39.0,31.0,-100.00,NNW,340,9.0,18.0,72,0.00,,,-99.99,,2013-02-05 22:21:00,
2013-02-05 16:32:00,39.0,30.0,-100.00,NNW,335,9.0,13.0,70,0.00,,,-99.99,,2013-02-05 22:32:00,
2013-02-05 16:42:00,39.0,30.0,-100.00,NNW,335,9.0,13.0,70,0.00,,,-99.99,,2013-02-05 22:42:00,
2013-02-05 16:51:00,39.0,29.0,-100.00,NNW,340,6.0,12.0,68,0.00,,,-99.99,,2013-02-05 22:51:00,
2013-02-05 17:02:00,39.0,29.0,-100.00,NNW,340,6.0,12.0,68,0.00,,,-99.99,,2013-02-05 23:02:00,
2013-02-05 17:11:00,39.0,29.0,-100.00,NNW,340,9.0,12.0,67,0.00,,,-99.99,,2013-02-05 23:11:00,
2013-02-05 17:21:00,39.0,29.0,-100.00,NNW,345,7.0,14.0,67,0.00,,,-99.99,,2013-02-05 23:21:00,
2013-02-05 17:32:00,38.0,29.0,-100.00,NNW,345,6.0,9.0,68,0.00,,,-99.99,,2013-02-05 23:32:00,
2013-02-05 17:42:00,38.0,29.0,-100.00,NNW,345,6.0,9.0,68,0.00,,,-99.99,,2013-02-05 23:42:00,
2013-02-05 17:52:00,37.0,28.0,-100.00,NNW,345,4.0,9.0,70,0.00,,,-99.99,,2013-02-05 23:52:00,
2013-02-05 18:02:00,37.0,28.0,-100.00,NNW,345,4.0,9.0,70,0.00,,,-99.99,,2013-02-06 00:02:00,
2013-02-05 18:11:00,36.0,28.0,-100.00,NW,325,3.0,6.0,71,0.00,,,-99.99,,2013-02-06 00:11:00,
2013-02-05 18:21:00,36.0,28.0,-100.00,NNW,330,3.0,5.0,72,0.00,,,-99.99,,2013-02-06 00:21:00,
2013-02-05 18:32:00,36.0,28.0,-100.00,WNW,285,2.0,4.0,73,0.00,,,-99.99,,2013-02-06 00:32:00,
2013-02-05 18:42:00,36.0,28.0,-100.00,WNW,285,2.0,4.0,73,0.00,,,-99.99,,2013-02-06 00:42:00,
2013-02-05 18:52:00,34.0,27.0,-100.00,SSW,205,4.0,4.0,77,0.00,,,-99.99,,2013-02-06 00:52:00,
2013-02-05 19:02:00,34.0,27.0,-100.00,SSW,205,4.0,4.0,77,0.00,,,-99.99,,2013-02-06 01:02:00,
2013-02-05 19:11:00,33.0,27.0,-100.00,SSW,210,2.0,4.0,79,0.00,,,-99.99,,2013-02-06 01:11:00,
2013-02-05 19:21:00,33.0,28.0,-100.00,West,270,2.0,3.0,80,0.00,,,-99.99,,2013-02-06 01:21:00,
2013-02-05 19:32:00,34.0,29.0,-100.00,WSW,255,2.0,4.0,80,0.00,,,-99.99,,2013-02-06 01:32:00,
2013-02-05 19:42:00,34.0,29.0,-100.00,WSW,255,2.0,4.0,80,0.00,,,-99.99,,2013-02-06 01:42:00,
2013-02-05 19:52:00,33.0,28.0,-100.00,WNW,285,3.0,6.0,80,0.00,,,-99.99,,2013-02-06 01:52:00,
2013-02-05 20:01:00,33.0,28.0,-100.00,WNW,285,3.0,6.0,80,0.00,,,-99.99,,2013-02-06 02:01:00,
2013-02-05 20:11:00,33.0,28.0,-100.00,West,265,5.0,6.0,81,0.00,,,-99.99,,2013-02-06 02:11:00,
2013-02-05 20:22:00,33.0,28.0,-100.00,WSW,255,4.0,4.0,81,0.00,,,-99.99,,2013-02-06 02:22:00,
2013-02-05 20:32:00,33.0,28.0,-100.00,NNW,345,6.0,7.0,83,0.00,,,-99.99,,2013-02-06 02:32:00,
2013-02-05 20:42:00,33.0,28.0,-100.00,NNW,345,6.0,7.0,83,0.00,,,-99.99,,2013-02-06 02:42:00,
2013-02-05 20:52:00,33.0,28.0,-100.00,North,350,5.0,9.0,82,0.00,,,-99.99,,2013-02-06 02:52:00,
2013-02-05 21:02:00,33.0,28.0,-100.00,North,350,5.0,9.0,82,0.00,,,-99.99,,2013-02-06 03:02:00,
2013-02-05 21:12:00,33.0,28.0,-100.00,North,350,4.0,7.0,83,0.00,,,-99.99,,2013-02-06 03:12:00,
2013-02-05 21:22:00,32.0,28.0,-100.00,NNW,340,3.0,6.0,83,0.00,,,-99.99,,2013-02-06 03:22:00,
2013-02-05 21:32:00,32.0,28.0,-100.00,North,0,2.0,6.0,84,0.00,,,-99.99,,2013-02-06 03:32:00,
2013-02-05 21:42:00,32.0,28.0,-100.00,North,0,2.0,6.0,84,0.00,,,-99.99,,2013-02-06 03:42:00,
2013-02-05 21:52:00,32.0,28.0,-100.00,North,350,2.0,4.0,85,0.00,,,-99.99,,2013-02-06 03:52:00,
2013-02-05 22:02:00,32.0,28.0,-100.00,North,350,2.0,4.0,85,0.00,,,-99.99,,2013-02-06 04:02:00,
2013-02-05 22:11:00,31.0,28.0,-100.00,North,350,2.0,4.0,86,0.00,,,-99.99,,2013-02-06 04:11:00,
2013-02-05 22:21:00,31.0,28.0,-100.00,WNW,295,1.0,3.0,87,0.00,,,-99.99,,2013-02-06 04:21:00,
2013-02-05 22:32:00,31.0,27.0,-100.00,NNW,330,4.0,7.0,87,0.00,,,-99.99,,2013-02-06 04:32:00,
2013-02-05 22:42:00,31.0,27.0,-100.00,NNW,330,4.0,7.0,87,0.00,,,-99.99,,2013-02-06 04:42:00,
2013-02-05 22:51:00,30.0,27.0,-100.00,NW,325,4.0,4.0,87,0.00,,,-99.99,,2013-02-06 04:51:00,
2013-02-05 23:02:00,30.0,27.0,-100.00,NW,325,4.0,4.0,87,0.00,,,-99.99,,2013-02-06 05:02:00,
2013-02-05 23:12:00,30.0,27.0,-100.00,NNW,340,4.0,5.0,88,0.00,,,-99.99,,2013-02-06 05:12:00,
2013-02-05 23:22:00,30.0,27.0,-100.00,NW,315,3.0,5.0,88,0.00,,,-99.99,,2013-02-06 05:22:00,
2013-02-05 23:31:00,29.0,26.0,-100.00,NE,50,1.0,4.0,89,0.00,,,-99.99,,2013-02-06 05:31:00,
2013-02-05 23:41:00,29.0,26.0,-100.00,NE,50,1.0,4.0,89,0.00,,,-99.99,,2013-02-06 05:41:00,
2013-02-05 23:52:00,29.0,26.0,-100.00,NNE,20,1.0,3.0,89,0.00,,,-99.99,,2013-02-06 05:52:00,